Time;durP1;ratioP1;P1;durP2;ratioP2;P2;SDS_P1;SDS_P2;PMS_P1;PMS_P2;Temp;Humidity;BMP_temperature;BMP_pressure;BME280_temperature;BME280_humidity;BME280_pressure;Samples;Min_cycle;Max_cycle;Signal;HPM_P1;HPM_P2
2022/12/04 00:01:29;;;;;;;52.97;24.60;;;0.10;99.90;;;;;;5048691;28;20053;-45
2022/12/04 00:03:57;;;;;;;47.08;23.17;;;0.10;99.90;;;;;;5048591;28;20059;-43
2022/12/04 00:06:24;;;;;;;49.30;23.98;;;0.10;99.90;;;;;;5048171;28;20048;-46
2022/12/04 00:08:51;;;;;;;48.25;23.33;;;0.10;99.90;;;;;;5048030;28;20525;-45
2022/12/04 00:11:20;;;;;;;45.90;22.23;;;0.10;99.90;;;;;;5048386;28;20041;-46
2022/12/04 00:13:46;;;;;;;54.30;23.85;;;0.10;99.90;;;;;;5048506;28;20089;-44
2022/12/04 00:16:15;;;;;;;49.80;24.40;;;0.10;99.90;;;;;;5047970;28;20049;-46
2022/12/04 00:18:41;;;;;;;49.85;24.02;;;0.10;99.90;;;;;;5048487;28;20249;-44
2022/12/04 00:21:09;;;;;;;42.60;22.63;;;0.10;99.90;;;;;;5048614;28;20086;-46
2022/12/04 00:23:37;;;;;;;50.22;23.60;;;0.10;99.90;;;;;;5048602;28;20489;-46
2022/12/04 00:26:08;;;;;;;55.03;25.90;;;0.10;99.90;;;;;;5048466;28;20061;-45
2022/12/04 00:28:35;;;;;;;49.42;24.05;;;0.10;99.90;;;;;;5048584;28;20049;-44
2022/12/04 00:31:05;;;;;;;49.80;23.75;;;0.10;99.90;;;;;;5047996;28;20045;-45
2022/12/04 00:33:30;;;;;;;49.20;24.00;;;0.10;99.90;;;;;;5048076;28;20044;-45
2022/12/04 00:35:58;;;;;;;49.88;24.98;;;0.10;99.90;;;;;;5047776;28;20429;-45
2022/12/04 00:38:24;;;;;;;49.17;23.10;;;0.10;99.90;;;;;;5046731;28;20056;-44
2022/12/04 00:40:50;;;;;;;49.20;24.13;;;0.10;99.90;;;;;;5048302;28;20425;-47
2022/12/04 00:43:16;;;;;;;50.67;24.73;;;0.10;99.90;;;;;;5048675;28;20032;-45
2022/12/04 00:45:41;;;;;;;54.40;25.67;;;0.00;99.90;;;;;;5048298;28;20032;-46
2022/12/04 00:48:07;;;;;;;50.75;23.77;;;0.00;99.90;;;;;;5047970;28;20075;-45
2022/12/04 00:50:33;;;;;;;49.80;23.20;;;0.00;99.90;;;;;;5047784;28;20044;-45
2022/12/04 00:52:58;;;;;;;51.08;24.35;;;0.00;99.90;;;;;;5047423;28;20119;-44
2022/12/04 00:55:24;;;;;;;55.55;25.00;;;0.00;99.90;;;;;;5047676;28;20170;-48
2022/12/04 00:57:50;;;;;;;45.30;21.90;;;0.00;99.90;;;;;;5047151;28;20095;-46
2022/12/04 01:00:17;;;;;;;50.97;24.70;;;0.00;99.90;;;;;;5047178;28;20411;-47
2022/12/04 01:02:43;;;;;;;54.47;27.08;;;0.10;99.90;;;;;;5046646;28;20049;-47
2022/12/04 01:05:09;;;;;;;54.80;27.25;;;0.00;99.90;;;;;;5046891;28;20881;-45
2022/12/04 01:07:34;;;;;;;54.13;24.77;;;0.00;99.90;;;;;;5047293;28;20079;-45
2022/12/04 01:10:00;;;;;;;58.53;25.92;;;0.00;99.90;;;;;;5047183;28;20386;-48
2022/12/04 01:12:25;;;;;;;52.22;23.88;;;0.00;99.90;;;;;;5047236;28;20120;-45
2022/12/04 01:14:51;;;;;;;48.45;23.85;;;0.00;99.90;;;;;;5047256;28;20041;-47
2022/12/04 01:17:17;;;;;;;51.45;24.20;;;0.00;99.90;;;;;;5046872;28;20394;-48
2022/12/04 01:19:43;;;;;;;56.75;26.83;;;0.00;99.90;;;;;;5047168;28;20041;-45
2022/12/04 01:22:09;;;;;;;48.80;24.08;;;0.00;99.90;;;;;;5047038;28;20422;-49
2022/12/04 01:24:34;;;;;;;50.78;25.10;;;0.00;99.90;;;;;;5047326;28;20109;-47
2022/12/04 01:27:00;;;;;;;52.97;25.70;;;0.00;99.90;;;;;;5045952;28;20051;-48
2022/12/04 01:29:26;;;;;;;49.22;24.17;;;0.00;99.90;;;;;;5047449;28;20730;-45
2022/12/04 01:31:52;;;;;;;52.88;25.92;;;0.00;99.90;;;;;;5047308;28;20494;-50
2022/12/04 01:34:17;;;;;;;49.72;25.52;;;0.00;99.90;;;;;;5047187;28;20037;-47
2022/12/04 01:36:43;;;;;;;52.17;26.60;;;0.00;99.90;;;;;;5047267;28;20360;-46
2022/12/04 01:39:09;;;;;;;49.47;25.10;;;-0.10;99.90;;;;;;5047112;28;20093;-46
2022/12/04 01:41:34;;;;;;;52.67;25.85;;;-0.10;99.90;;;;;;5046771;28;20066;-45
2022/12/04 01:44:09;;;;;;;50.97;25.95;;;-0.10;99.90;;;;;;5046694;28;20040;-45
2022/12/04 01:46:34;;;;;;;60.90;26.23;;;-0.10;99.90;;;;;;5046770;28;20429;-46
2022/12/04 01:49:01;;;;;;;60.10;28.50;;;-0.10;99.90;;;;;;5046490;28;20049;-48
2022/12/04 01:51:35;;;;;;;56.53;27.55;;;-0.20;99.90;;;;;;5046666;28;20081;-46
2022/12/04 01:54:09;;;;;;;52.95;26.77;;;-0.10;99.90;;;;;;5046733;28;20112;-44
2022/12/04 01:56:56;;;;;;;51.58;24.40;;;-0.10;99.90;;;;;;5046695;28;20036;-46
2022/12/04 01:59:28;;;;;;;54.63;26.48;;;-0.10;99.90;;;;;;5046121;28;20044;-48
2022/12/04 02:02:11;;;;;;;54.60;27.70;;;-0.10;99.90;;;;;;5046471;28;20049;-48
2022/12/04 02:04:38;;;;;;;57.63;26.77;;;-0.10;99.90;;;;;;5046563;28;20060;-46
2022/12/04 02:07:04;;;;;;;50.22;25.55;;;-0.10;99.90;;;;;;5045965;28;20049;-48
2022/12/04 02:09:31;;;;;;;55.10;26.80;;;-0.10;99.90;;;;;;5046442;28;20063;-44
2022/12/04 02:12:02;;;;;;;54.30;26.65;;;-0.10;99.90;;;;;;5062255;28;20045;-49
2022/12/04 02:14:30;;;;;;;54.00;25.23;;;-0.10;99.90;;;;;;5044942;28;20045;-47
2022/12/04 02:17:26;;;;;;;55.25;27.75;;;-0.10;99.90;;;;;;5046033;28;20072;-48
2022/12/04 02:20:20;;;;;;;54.17;25.00;;;-0.10;99.90;;;;;;5044264;28;20064;-47
2022/12/04 02:23:01;;;;;;;52.50;24.98;;;-0.10;99.90;;;;;;5046175;28;20077;-46
2022/12/04 02:25:48;;;;;;;52.75;24.13;;;-0.10;99.90;;;;;;5045899;28;20751;-46
2022/12/04 02:28:23;;;;;;;53.03;25.58;;;-0.10;99.90;;;;;;5045964;28;20053;-48
2022/12/04 02:30:54;;;;;;;52.70;25.42;;;-0.10;99.90;;;;;;5046358;28;20071;-47
2022/12/04 02:33:33;;;;;;;56.28;26.17;;;-0.20;99.90;;;;;;5046180;28;20045;-47
2022/12/04 02:36:16;;;;;;;56.58;26.00;;;-0.20;99.90;;;;;;5046391;28;20053;-46
2022/12/04 02:38:49;;;;;;;59.60;27.15;;;-0.20;99.90;;;;;;5048966;28;20041;-48
2022/12/04 02:41:43;;;;;;;59.85;29.08;;;-0.20;99.90;;;;;;5050500;28;20044;-46
2022/12/04 02:44:35;;;;;;;56.70;25.83;;;-0.20;99.90;;;;;;5050098;28;20542;-46
2022/12/04 02:47:10;;;;;;;55.20;27.90;;;-0.10;99.90;;;;;;5050395;28;20049;-44
2022/12/04 02:49:58;;;;;;;56.70;25.67;;;-0.20;99.90;;;;;;5049990;28;20041;-48
2022/12/04 02:52:32;;;;;;;58.22;26.65;;;-0.10;99.90;;;;;;5049773;28;20048;-48
2022/12/04 02:55:06;;;;;;;54.80;26.30;;;-0.30;99.90;;;;;;5049968;28;20037;-45
2022/12/04 02:57:37;;;;;;;58.00;26.23;;;-0.20;99.90;;;;;;5049700;28;20123;-45
2022/12/04 03:00:07;;;;;;;58.00;27.13;;;-0.20;99.90;;;;;;5049696;28;20048;-45
2022/12/04 03:02:42;;;;;;;58.88;26.58;;;-0.20;99.90;;;;;;5049584;28;20041;-45
2022/12/04 03:05:12;;;;;;;62.83;29.30;;;-0.20;99.90;;;;;;5050183;28;20475;-47
2022/12/04 03:07:49;;;;;;;55.55;25.23;;;-0.30;99.90;;;;;;5050204;28;20268;-45
2022/12/04 03:10:21;;;;;;;57.50;26.20;;;-0.20;99.90;;;;;;5049675;28;20044;-46
2022/12/04 03:12:53;;;;;;;67.53;25.58;;;-0.20;99.90;;;;;;5050060;28;20045;-45
2022/12/04 03:15:30;;;;;;;62.70;28.23;;;-0.30;99.90;;;;;;5049662;28;20041;-45
2022/12/04 03:17:59;;;;;;;55.42;27.80;;;-0.20;99.90;;;;;;5049338;28;20057;-47
2022/12/04 03:20:25;;;;;;;59.30;29.58;;;-0.30;99.90;;;;;;5049156;28;20127;-46
2022/12/04 03:23:08;;;;;;;62.47;28.40;;;-0.40;99.90;;;;;;5049219;28;20044;-44
2022/12/04 03:25:44;;;;;;;60.53;30.42;;;-0.30;99.90;;;;;;5048853;28;20120;-46
2022/12/04 03:28:21;;;;;;;61.13;28.98;;;-0.30;99.90;;;;;;5049025;28;20120;-45
2022/12/04 03:30:56;;;;;;;61.70;29.45;;;1.40;99.90;;;;;;5049051;28;20037;-46
2022/12/04 03:33:30;;;;;;;63.05;29.25;;;-0.40;99.90;;;;;;5049130;28;20118;-46
2022/12/04 03:36:18;;;;;;;58.85;29.17;;;-0.30;99.90;;;;;;5049150;28;20044;-44
2022/12/04 03:38:58;;;;;;;60.47;29.13;;;-0.40;99.90;;;;;;5049468;28;20094;-45
2022/12/04 03:41:54;;;;;;;55.75;28.23;;;-0.40;99.90;;;;;;5049081;28;20128;-45
2022/12/04 03:44:31;;;;;;;58.92;29.58;;;-0.30;99.90;;;;;;5048271;28;20502;-44
2022/12/04 03:47:09;;;;;;;59.67;28.83;;;-0.30;99.90;;;;;;5049508;28;20041;-45
2022/12/04 03:49:51;;;;;;;63.63;30.40;;;-0.30;99.90;;;;;;5048063;28;20041;-46
2022/12/04 03:52:35;;;;;;;60.75;31.70;;;-0.40;99.90;;;;;;5049174;28;20248;-45
2022/12/04 03:55:10;;;;;;;61.67;29.65;;;-0.30;99.90;;;;;;5049307;28;20143;-44
2022/12/04 03:57:43;;;;;;;59.10;30.27;;;-0.40;99.90;;;;;;5049000;28;20041;-45
2022/12/04 04:00:13;;;;;;;61.20;30.25;;;-0.40;99.90;;;;;;5049151;28;20049;-45
2022/12/04 04:02:47;;;;;;;63.63;29.08;;;-0.30;99.90;;;;;;5048595;28;20044;-44
2022/12/04 04:05:15;;;;;;;58.67;28.13;;;-0.40;99.90;;;;;;5049124;28;20065;-44
2022/12/04 04:07:46;;;;;;;59.75;30.45;;;-0.40;99.90;;;;;;5049221;28;20045;-47
2022/12/04 04:10:15;;;;;;;57.28;29.90;;;-0.40;99.90;;;;;;5049276;28;20041;-45
2022/12/04 04:24:13;;;;;;;58.38;27.30;;;-0.40;99.90;;;;;;5048729;28;20489;-46
2022/12/04 04:24:13;;;;;;;64.60;30.45;;;-0.40;99.90;;;;;;5049437;28;20140;-45
2022/12/04 04:26:43;;;;;;;58.40;28.67;;;-0.40;99.90;;;;;;5048287;28;20076;-46
2022/12/04 04:29:09;;;;;;;59.53;27.90;;;-0.50;99.90;;;;;;5048257;28;20505;-45
2022/12/04 04:31:42;;;;;;;55.03;27.98;;;-0.40;99.90;;;;;;5048147;28;20097;-46
2022/12/04 04:34:26;;;;;;;67.35;30.48;;;-0.40;99.90;;;;;;5048146;28;20102;-44
2022/12/04 04:37:02;;;;;;;54.88;29.20;;;-0.40;99.90;;;;;;5047814;28;20040;-46
2022/12/04 04:39:58;;;;;;;60.10;29.02;;;-0.40;99.90;;;;;;5046807;28;20127;-45
2022/12/04 04:42:46;;;;;;;55.70;26.73;;;-0.40;99.90;;;;;;5048300;28;20052;-45
2022/12/04 04:45:32;;;;;;;61.42;29.27;;;-0.30;99.90;;;;;;5047779;28;20546;-45
2022/12/04 04:48:20;;;;;;;55.08;26.58;;;-0.40;99.90;;;;;;5047480;28;20041;-45
2022/12/04 04:50:47;;;;;;;54.50;26.75;;;-0.30;99.90;;;;;;5047546;28;20045;-44
2022/12/04 04:53:20;;;;;;;63.78;29.58;;;-0.50;99.90;;;;;;5047578;28;20596;-45
2022/12/04 04:55:46;;;;;;;58.05;29.13;;;-0.40;99.90;;;;;;5047454;28;20764;-46
2022/12/04 04:58:15;;;;;;;55.50;29.83;;;-0.40;99.90;;;;;;5047281;28;20502;-44
2022/12/04 05:01:04;;;;;;;57.28;28.17;;;-0.30;99.90;;;;;;5047327;28;20157;-44
2022/12/04 05:03:31;;;;;;;58.78;28.42;;;-0.40;99.90;;;;;;5047579;28;20121;-47
2022/12/04 05:05:57;;;;;;;62.00;31.13;;;-0.40;99.90;;;;;;5047536;28;20044;-44
2022/12/04 05:08:22;;;;;;;57.63;29.35;;;-0.40;99.90;;;;;;5047648;28;20128;-48
2022/12/04 05:10:48;;;;;;;55.00;26.95;;;-0.40;99.90;;;;;;5047061;28;20100;-45
2022/12/04 05:13:15;;;;;;;55.20;27.27;;;-0.40;99.90;;;;;;5047349;28;20048;-45
2022/12/04 05:15:41;;;;;;;59.78;28.42;;;-0.40;99.90;;;;;;5047092;28;20884;-45
2022/12/04 05:18:07;;;;;;;59.15;26.92;;;0.30;99.90;;;;;;5047891;28;20179;-45
2022/12/04 05:20:36;;;;;;;55.63;27.75;;;-0.50;99.90;;;;;;5047432;28;20410;-45
2022/12/04 05:23:02;;;;;;;55.20;27.27;;;-0.40;99.90;;;;;;5047653;28;20040;-45
2022/12/04 05:25:28;;;;;;;59.13;29.20;;;-0.40;99.90;;;;;;5047637;28;20509;-45
2022/12/04 05:27:53;;;;;;;61.47;28.42;;;-0.40;99.90;;;;;;5046960;28;20499;-45
2022/12/04 05:30:19;;;;;;;59.15;28.00;;;-0.40;99.90;;;;;;5047271;28;20391;-44
2022/12/04 05:32:45;;;;;;;58.75;29.20;;;0.40;99.90;;;;;;5047228;28;20079;-46
2022/12/04 05:35:10;;;;;;;58.88;27.58;;;-0.40;99.90;;;;;;5047335;28;20179;-45
2022/12/04 05:37:37;;;;;;;59.65;27.90;;;-0.40;99.90;;;;;;5045414;28;20128;-44
2022/12/04 05:40:04;;;;;;;56.88;30.13;;;-0.40;99.90;;;;;;5046936;28;20099;-45
2022/12/04 05:42:30;;;;;;;61.33;28.17;;;-0.30;99.90;;;;;;5046826;28;20056;-44
2022/12/04 05:44:56;;;;;;;56.45;27.58;;;-0.30;99.90;;;;;;5046167;28;20433;-45
2022/12/04 05:47:21;;;;;;;57.13;28.90;;;-0.40;99.90;;;;;;5046368;28;20157;-44
2022/12/04 05:49:47;;;;;;;55.78;27.92;;;-2.00;99.90;;;;;;5044857;28;20082;-46
2022/12/04 05:52:13;;;;;;;55.70;26.63;;;-0.40;99.90;;;;;;5046225;28;20049;-45
2022/12/04 05:54:39;;;;;;;60.55;27.30;;;-0.30;99.90;;;;;;5046730;28;20107;-47
2022/12/04 05:57:05;;;;;;;57.65;29.33;;;-0.40;99.90;;;;;;5046710;28;20378;-45
2022/12/04 05:59:31;;;;;;;60.55;28.67;;;-0.30;99.90;;;;;;5046800;28;20045;-46
2022/12/04 06:01:57;;;;;;;61.80;28.98;;;0.10;99.90;;;;;;5044926;28;20052;-46
2022/12/04 06:04:22;;;;;;;59.50;28.48;;;-0.30;99.90;;;;;;5046400;28;20672;-44
2022/12/04 06:06:48;;;;;;;60.53;29.52;;;-0.40;99.90;;;;;;5046227;28;20053;-44
2022/12/04 06:09:14;;;;;;;61.03;31.30;;;-0.30;99.90;;;;;;5046300;28;20122;-45
2022/12/04 06:11:41;;;;;;;60.08;28.92;;;-0.30;99.90;;;;;;5046346;28;20041;-44
2022/12/04 06:14:09;;;;;;;60.88;28.30;;;-0.40;99.90;;;;;;5051287;28;20048;-45
2022/12/04 06:16:38;;;;;;;62.30;28.55;;;-0.40;99.90;;;;;;5052976;28;20378;-45
2022/12/04 06:19:07;;;;;;;68.47;30.77;;;-0.40;99.90;;;;;;5053441;28;20049;-45
2022/12/04 06:21:34;;;;;;;67.57;29.55;;;-0.40;99.90;;;;;;5053239;28;20048;-44
2022/12/04 06:24:00;;;;;;;65.93;30.17;;;-0.40;99.90;;;;;;5053301;28;20147;-44
2022/12/04 06:26:26;;;;;;;66.15;31.38;;;-0.40;99.90;;;;;;5053339;28;20135;-43
2022/12/04 06:28:53;;;;;;;59.92;27.70;;;-0.40;99.90;;;;;;5053221;28;20059;-45
2022/12/04 06:31:20;;;;;;;63.53;28.48;;;-0.40;99.90;;;;;;5053216;28;20749;-45
2022/12/04 06:33:46;;;;;;;62.47;29.92;;;-0.40;99.90;;;;;;5053287;28;20041;-44
2022/12/04 06:36:15;;;;;;;61.40;26.73;;;-0.40;99.90;;;;;;5053067;28;20148;-44
2022/12/04 06:38:41;;;;;;;66.30;30.38;;;-0.50;99.90;;;;;;5053101;28;20574;-46
2022/12/04 06:41:10;;;;;;;61.65;27.65;;;-1.10;99.90;;;;;;5053230;28;20045;-44
2022/12/04 06:43:36;;;;;;;62.42;28.30;;;-0.50;99.90;;;;;;5052993;28;20125;-45
2022/12/04 06:46:03;;;;;;;65.95;30.13;;;-0.40;99.90;;;;;;5052862;28;20308;-45
2022/12/04 06:48:28;;;;;;;70.82;32.45;;;-0.50;99.90;;;;;;5052852;28;20118;-48
2022/12/04 06:51:02;;;;;;;71.72;31.65;;;-0.50;99.90;;;;;;5052085;28;20040;-45
2022/12/04 06:53:29;;;;;;;61.53;29.00;;;-0.40;99.90;;;;;;5052134;28;20099;-46
2022/12/04 06:55:57;;;;;;;65.00;29.75;;;-0.60;99.90;;;;;;5052245;28;20113;-46
2022/12/04 06:58:23;;;;;;;65.25;29.73;;;-0.40;99.90;;;;;;5052614;28;20179;-48
2022/12/04 07:00:49;;;;;;;77.70;32.47;;;-0.50;99.90;;;;;;5052565;28;20037;-47
2022/12/04 07:03:15;;;;;;;74.70;31.30;;;-0.50;99.90;;;;;;5052836;28;20526;-49
2022/12/04 07:05:40;;;;;;;73.78;32.45;;;-0.50;99.90;;;;;;5052764;28;20055;-48
2022/12/04 07:08:06;;;;;;;76.32;31.92;;;-0.50;99.90;;;;;;5052779;28;20037;-45
2022/12/04 07:10:34;;;;;;;75.57;32.35;;;-0.50;99.90;;;;;;5052838;28;20488;-47
2022/12/04 07:13:00;;;;;;;74.07;32.40;;;-0.50;99.90;;;;;;5052959;28;20048;-48
2022/12/04 07:15:25;;;;;;;75.43;32.50;;;-0.50;99.90;;;;;;5052806;28;20041;-49
2022/12/04 07:17:51;;;;;;;76.13;32.30;;;-0.50;99.90;;;;;;5052072;28;20048;-48
2022/12/04 07:20:17;;;;;;;85.72;32.67;;;-0.50;99.90;;;;;;5052403;28;20048;-48
2022/12/04 07:22:42;;;;;;;74.45;32.65;;;-0.50;99.90;;;;;;5052559;28;20128;-45
2022/12/04 07:25:08;;;;;;;82.85;33.90;;;-0.50;99.90;;;;;;5048470;28;20091;-46
2022/12/04 07:27:35;;;;;;;74.10;32.67;;;1.20;99.90;;;;;;5047826;28;20084;-45
2022/12/04 07:30:01;;;;;;;77.68;33.47;;;-0.50;99.90;;;;;;5049166;28;20081;-45
2022/12/04 07:32:26;;;;;;;77.82;32.35;;;-0.50;99.90;;;;;;5049351;28;20041;-47
2022/12/04 07:34:52;;;;;;;78.45;33.80;;;-0.50;99.90;;;;;;5047476;28;20055;-47
2022/12/04 07:37:18;;;;;;;83.53;34.00;;;-0.50;99.90;;;;;;5049026;28;20240;-45
2022/12/04 07:39:43;;;;;;;74.20;31.23;;;-0.50;99.90;;;;;;5047962;28;20144;-47
2022/12/04 07:42:09;;;;;;;82.20;33.30;;;-0.50;99.90;;;;;;5048796;28;20502;-44
2022/12/04 07:44:36;;;;;;;78.60;30.50;;;-0.40;99.90;;;;;;5048905;28;20516;-47
2022/12/04 07:47:01;;;;;;;82.18;32.65;;;-0.40;99.90;;;;;;5048570;28;20045;-49
2022/12/04 07:49:27;;;;;;;84.32;33.17;;;0.40;99.90;;;;;;5048585;28;20037;-48
2022/12/04 07:51:53;;;;;;;82.05;33.22;;;-0.40;99.90;;;;;;5048448;28;20041;-45
2022/12/04 07:54:18;;;;;;;85.68;32.97;;;-0.50;99.90;;;;;;5048913;28;20051;-45
2022/12/04 07:56:44;;;;;;;86.18;32.92;;;-0.40;99.90;;;;;;5048808;28;20041;-45
2022/12/04 07:59:09;;;;;;;90.22;35.58;;;-0.40;99.90;;;;;;5048761;28;20053;-45
2022/12/04 08:01:35;;;;;;;88.30;35.92;;;-0.40;99.90;;;;;;5048743;28;20510;-48
2022/12/04 08:04:02;;;;;;;86.45;34.13;;;-0.40;99.90;;;;;;5048419;28;20469;-47
2022/12/04 08:06:29;;;;;;;84.53;34.25;;;-0.40;99.90;;;;;;5048416;28;20218;-45
2022/12/04 08:08:56;;;;;;;87.97;34.20;;;-0.40;99.90;;;;;;5048479;28;20118;-46
2022/12/04 08:11:24;;;;;;;82.40;32.85;;;-0.40;99.90;;;;;;5048822;28;20041;-47
2022/12/04 08:13:57;;;;;;;79.55;33.65;;;-0.40;99.90;;;;;;5048362;28;20505;-46
2022/12/04 08:16:24;;;;;;;88.72;33.17;;;1.40;99.90;;;;;;5048565;28;20040;-47
2022/12/04 08:18:51;;;;;;;80.40;32.47;;;-0.30;99.90;;;;;;5048697;28;20041;-45
2022/12/04 08:21:20;;;;;;;82.10;32.08;;;-0.30;99.90;;;;;;5048439;28;20182;-46
2022/12/04 08:23:48;;;;;;;86.15;33.30;;;-0.30;99.90;;;;;;5049020;28;20169;-44
2022/12/04 08:26:15;;;;;;;82.43;33.45;;;-0.30;99.90;;;;;;5048567;28;20103;-45
2022/12/04 08:28:41;;;;;;;81.80;32.78;;;-0.30;99.90;;;;;;5048513;28;20172;-44
2022/12/04 08:31:27;;;;;;;83.57;34.65;;;-0.30;99.90;;;;;;5048036;28;20037;-48
2022/12/04 08:33:54;;;;;;;77.55;32.33;;;-0.30;99.90;;;;;;5048312;28;20041;-45
2022/12/04 08:36:21;;;;;;;82.97;34.58;;;-0.20;99.90;;;;;;5047701;28;20037;-45
2022/12/04 08:38:47;;;;;;;82.32;32.55;;;-0.20;99.90;;;;;;5048107;28;20052;-45
2022/12/04 08:41:15;;;;;;;75.15;34.58;;;-0.30;99.90;;;;;;5047896;28;20049;-49
2022/12/04 08:43:41;;;;;;;77.82;31.90;;;-0.20;99.90;;;;;;5047869;28;20073;-44
2022/12/04 08:46:13;;;;;;;79.10;30.77;;;-0.20;99.90;;;;;;5047547;28;20447;-45
2022/12/04 08:48:39;;;;;;;70.50;31.92;;;-0.20;99.90;;;;;;5047799;28;20379;-46
2022/12/04 08:51:08;;;;;;;73.35;31.77;;;-0.10;99.90;;;;;;5047653;28;20080;-46
2022/12/04 08:53:35;;;;;;;79.85;32.17;;;-0.10;99.90;;;;;;5047706;28;20417;-44
2022/12/04 08:56:01;;;;;;;79.82;32.42;;;-0.10;99.90;;;;;;5047481;28;20044;-45
2022/12/04 08:58:27;;;;;;;74.93;31.98;;;2.00;99.90;;;;;;5045700;28;20126;-46
2022/12/04 09:00:52;;;;;;;76.25;33.40;;;-0.10;99.90;;;;;;5047405;28;20044;-45
2022/12/04 09:03:19;;;;;;;69.40;31.20;;;-0.10;99.90;;;;;;5047390;28;20056;-46
2022/12/04 09:05:45;;;;;;;76.03;32.15;;;-0.10;99.90;;;;;;5047481;28;20040;-45
2022/12/04 09:08:15;;;;;;;70.32;31.73;;;-0.10;99.90;;;;;;5047418;28;20124;-47
2022/12/04 09:10:42;;;;;;;65.15;30.00;;;-0.10;99.90;;;;;;5047694;28;20036;-44
2022/12/04 09:13:08;;;;;;;69.70;30.58;;;0.90;99.90;;;;;;5047607;28;20070;-46
2022/12/04 09:15:38;;;;;;;72.13;33.20;;;0.00;99.90;;;;;;5047870;28;20041;-44
2022/12/04 09:18:03;;;;;;;69.63;31.17;;;0.00;99.90;;;;;;5047362;28;20041;-46
2022/12/04 09:20:29;;;;;;;65.88;29.15;;;0.00;99.90;;;;;;5047360;28;20045;-44
2022/12/04 09:22:55;;;;;;;64.18;28.85;;;0.10;99.90;;;;;;5047454;28;20049;-50
2022/12/04 09:25:20;;;;;;;66.43;30.40;;;0.10;99.90;;;;;;5047232;28;20048;-50
2022/12/04 09:27:46;;;;;;;66.15;30.60;;;0.10;99.90;;;;;;5047152;28;20119;-48
2022/12/04 09:30:12;;;;;;;64.20;28.95;;;0.10;99.90;;;;;;5047360;28;20041;-49
2022/12/04 09:32:38;;;;;;;67.88;30.77;;;0.20;99.90;;;;;;5047729;28;20061;-52
2022/12/04 09:35:07;;;;;;;66.13;29.80;;;0.20;99.90;;;;;;5047633;28;20072;-52
2022/12/04 09:37:35;;;;;;;64.70;29.42;;;0.20;99.90;;;;;;5047610;28;20076;-52
2022/12/04 09:40:03;;;;;;;63.30;29.70;;;0.30;99.90;;;;;;5030893;28;20075;-52
2022/12/04 09:42:36;;;;;;;62.10;28.25;;;0.30;99.90;;;;;;5026888;28;20059;-53
2022/12/04 09:45:19;;;;;;;55.85;27.05;;;0.30;99.90;;;;;;5045272;28;20048;-51
2022/12/04 09:47:51;;;;;;;60.85;28.60;;;0.30;99.90;;;;;;5044520;28;20124;-50
2022/12/04 09:50:42;;;;;;;56.22;27.83;;;0.30;99.90;;;;;;5044863;28;20803;-51
2022/12/04 09:53:17;;;;;;;61.60;29.25;;;0.30;99.90;;;;;;5033118;28;20060;-54
2022/12/04 09:55:54;;;;;;;61.83;27.65;;;0.40;99.90;;;;;;5045747;28;20044;-53
2022/12/04 09:58:54;;;;;;;56.28;27.95;;;0.40;99.90;;;;;;5045126;28;20040;-52
2022/12/04 10:01:23;;;;;;;59.20;27.33;;;0.50;99.90;;;;;;4989652;28;20395;-51
2022/12/04 10:03:49;;;;;;;55.95;26.98;;;0.50;99.90;;;;;;5045629;28;20106;-53
2022/12/04 10:06:21;;;;;;;54.38;27.00;;;0.50;99.90;;;;;;5045045;28;20476;-55
2022/12/04 10:09:02;;;;;;;55.28;26.30;;;0.60;99.90;;;;;;5045442;28;20049;-55
2022/12/04 10:11:51;;;;;;;54.28;26.13;;;0.60;99.90;;;;;;5044995;28;20040;-55
2022/12/04 10:14:45;;;;;;;56.88;26.70;;;0.60;99.90;;;;;;5044677;28;20040;-55
2022/12/04 10:17:14;;;;;;;51.47;25.17;;;0.70;99.90;;;;;;5044843;28;20506;-53
2022/12/04 10:20:06;;;;;;;52.17;26.30;;;0.70;99.90;;;;;;5044087;28;20132;-52
2022/12/04 10:22:51;;;;;;;49.53;26.10;;;0.80;99.90;;;;;;5022490;28;20056;-55
2022/12/04 10:25:20;;;;;;;50.25;24.90;;;0.90;99.90;;;;;;5024752;28;20052;-55
2022/12/04 10:27:54;;;;;;;51.00;24.70;;;0.90;99.90;;;;;;5043650;28;20053;-55
2022/12/04 10:30:29;;;;;;;44.13;23.50;;;1.00;99.90;;;;;;5043991;28;20045;-53
2022/12/04 10:33:20;;;;;;;47.50;22.50;;;1.00;99.90;;;;;;5026326;28;20049;-54
2022/12/04 10:35:51;;;;;;;41.67;22.67;;;2.00;99.90;;;;;;5030150;28;20057;-49
2022/12/04 10:38:38;;;;;;;42.85;22.73;;;1.00;99.90;;;;;;5043996;28;20795;-50
2022/12/04 10:41:09;;;;;;;47.80;23.13;;;1.10;99.90;;;;;;5044026;28;20136;-48
2022/12/04 10:43:41;;;;;;;45.38;22.63;;;1.20;99.90;;;;;;5043731;28;20041;-47
2022/12/04 10:46:25;;;;;;;42.47;21.60;;;1.40;99.90;;;;;;5044371;28;20372;-51
2022/12/04 10:49:08;;;;;;;41.97;20.98;;;1.20;99.90;;;;;;5044335;28;20045;-46
2022/12/04 10:51:40;;;;;;;;;;;1.20;99.90;;;;;;5043928;28;20079;-47
2022/12/04 10:54:20;;;;;;;42.30;21.52;;;1.20;99.90;;;;;;5044107;28;19928;-50
2022/12/04 10:57:18;;;;;;;40.20;20.75;;;1.20;99.90;;;;;;5042476;28;20394;-47
2022/12/04 10:59:55;;;;;;;46.42;22.92;;;1.10;99.90;;;;;;5033419;28;20153;-50
2022/12/04 11:02:30;;;;;;;37.88;20.77;;;1.20;99.90;;;;;;5029393;28;20076;-47
2022/12/04 11:05:02;;;;;;;40.53;21.23;;;1.20;99.90;;;;;;5047453;28;20041;-50
2022/12/04 11:07:34;;;;;;;41.35;20.60;;;1.20;99.90;;;;;;5047068;28;20061;-55
2022/12/04 11:10:20;;;;;;;39.92;20.00;;;1.20;99.90;;;;;;5029573;28;20044;-47
2022/12/04 11:13:05;;;;;;;37.72;19.13;;;1.20;99.90;;;;;;5047606;28;20036;-49
2022/12/04 11:15:35;;;;;;;39.10;21.00;;;1.10;99.90;;;;;;5047074;28;20102;-52
2022/12/04 11:18:27;;;;;;;39.97;19.90;;;1.00;99.90;;;;;;5046986;28;20040;-52
2022/12/04 11:20:57;;;;;;;37.13;19.92;;;1.20;99.90;;;;;;5045150;28;20056;-52
2022/12/04 11:23:23;;;;;;;35.13;18.52;;;1.20;99.90;;;;;;5045067;28;20132;-57
2022/12/04 11:25:53;;;;;;;34.33;19.20;;;1.10;99.90;;;;;;5046474;28;20118;-57
2022/12/04 11:28:22;;;;;;;34.83;17.70;;;1.10;99.90;;;;;;5046967;28;20063;-57
2022/12/04 11:30:52;;;;;;;34.45;17.67;;;1.30;99.90;;;;;;5046824;28;20041;-58
2022/12/04 11:33:27;;;;;;;34.78;19.05;;;1.40;99.90;;;;;;5047096;28;20122;-58
2022/12/04 11:35:55;;;;;;;34.08;18.10;;;1.30;99.90;;;;;;5028785;28;20052;-58
2022/12/04 11:38:26;;;;;;;33.58;18.17;;;1.40;99.90;;;;;;5046749;28;20049;-57
2022/12/04 11:40:56;;;;;;;31.63;17.30;;;1.20;99.90;;;;;;5027038;28;20053;-58
2022/12/04 11:43:27;;;;;;;35.65;18.08;;;1.30;99.90;;;;;;5046919;28;20040;-61
2022/12/04 11:45:54;;;;;;;30.98;17.80;;;1.40;99.90;;;;;;5045926;28;20056;-53
2022/12/04 11:48:21;;;;;;;31.98;15.95;;;1.90;99.90;;;;;;5046796;28;20502;-53
2022/12/04 11:51:15;;;;;;;32.50;18.85;;;1.50;99.90;;;;;;5045551;28;20676;-53
2022/12/04 11:53:53;;;;;;;30.05;16.55;;;1.50;99.90;;;;;;5061725;28;20505;-58
2022/12/04 11:56:31;;;;;;;29.95;16.90;;;1.50;99.90;;;;;;5046217;28;20063;-57
2022/12/04 11:58:56;;;;;;;32.10;17.80;;;1.60;99.90;;;;;;5050338;28;20048;-58
2022/12/04 12:01:34;;;;;;;29.67;16.70;;;1.60;99.90;;;;;;5051605;28;20444;-58
2022/12/04 12:04:20;;;;;;;28.27;15.23;;;1.60;99.90;;;;;;5052940;28;20098;-58
2022/12/04 12:07:07;;;;;;;31.60;16.67;;;1.50;99.90;;;;;;5051730;28;20740;-59
2022/12/04 12:09:39;;;;;;;30.33;15.48;;;1.60;99.90;;;;;;5050875;28;20045;-56
2022/12/04 12:12:29;;;;;;;29.13;15.50;;;1.60;99.90;;;;;;5049737;28;20048;-47
2022/12/04 12:15:30;;;;;;;33.00;18.27;;;2.10;99.90;;;;;;5044831;28;20041;-46
2022/12/04 12:18:18;;;;;;;30.40;16.10;;;1.70;99.90;;;;;;5045794;28;20688;-48
2022/12/04 12:21:11;;;;;;;29.75;15.48;;;1.70;99.90;;;;;;5045715;28;20565;-49
2022/12/04 12:23:45;;;;;;;28.02;13.93;;;1.80;99.90;;;;;;5045749;28;20072;-50
2022/12/04 12:26:16;;;;;;;29.42;15.63;;;1.80;99.90;;;;;;5045770;28;20825;-51
2022/12/04 12:28:56;;;;;;;28.40;15.60;;;1.80;99.90;;;;;;5045655;28;20510;-48
2022/12/04 12:31:43;;;;;;;29.98;16.10;;;1.80;99.90;;;;;;5045758;28;20060;-57
2022/12/04 12:34:40;;;;;;;29.25;15.25;;;1.90;99.90;;;;;;5027314;28;20060;-56
2022/12/04 12:37:40;;;;;;;27.30;14.75;;;1.90;99.90;;;;;;5039618;28;20056;-57
2022/12/04 12:40:24;;;;;;;30.38;15.07;;;1.90;99.90;;;;;;5023928;28;20129;-58
2022/12/04 12:43:00;;;;;;;28.58;15.57;;;1.90;99.90;;;;;;5043745;28;20044;-60
2022/12/04 12:45:54;;;;;;;29.27;15.88;;;1.70;99.90;;;;;;5047172;28;20076;-58
2022/12/04 12:48:36;;;;;;;30.02;17.27;;;1.90;99.90;;;;;;5043915;28;20065;-55
2022/12/04 12:51:33;;;;;;;32.70;17.80;;;1.90;99.90;;;;;;5044535;28;20470;-59
2022/12/04 12:54:33;;;;;;;30.15;16.08;;;1.90;99.90;;;;;;5061005;28;20075;-53
2022/12/04 12:57:06;;;;;;;28.27;16.27;;;1.70;99.90;;;;;;5050714;28;20053;-61
2022/12/04 12:59:33;;;;;;;30.48;16.52;;;1.70;99.90;;;;;;5051368;28;20110;-60
2022/12/04 13:02:07;;;;;;;31.35;15.95;;;1.80;99.90;;;;;;5047123;28;20498;-60
2022/12/04 13:04:49;;;;;;;34.28;17.58;;;1.80;99.90;;;;;;5046818;28;20044;-62